Omskiy-107 — UBWE3 — position and weather

sailwx.info

Track history (hours):
 
Tides and Currents Weather Stations Pressure Air Temp Water Temp Dewpoint Dewpoint Depression Visibility Wind Speed Wind Dir Waves Ship Positions

Omskiy-107

Last reported at 2015-Mar-05 01:33 UTC. Time now 2015-Mar-05 18:49 UTC.
Position N 34°24' E 033°13'.

Length 108 m; draft 3.4 m.

Type: Cargo ship. MMSI: 273343220.

Date/timePositionNaut miles runAvg speedWind from/ knotsBaromVisibWave heightAir tempDewpointWater temp
2015-Mar-05 01:33N 34°24' E 033°13'6 6.2
2015-Mar-05 00:34N 34°27' E 033°07'8 7.7
2015-Mar-04 23:34N 34°30' E 032°58'8 7.9
2015-Mar-04 22:33N 34°32' E 032°48'382 7.6
2015-Mar-02 20:04N 37°32' E 025°53'  
2015-Feb-27 14:04N 44°16' E 034°03'510.1
2015-Feb-27 13:34N 44°18' E 034°09'10 9.9
2015-Feb-27 12:33N 44°21' E 034°22'10 9.7
2015-Feb-27 11:33N 44°25' E 034°35'10 9.8
2015-Feb-27 10:34N 44°29' E 034°47'10 9.7
2015-Feb-27 09:33N 44°33' E 034°59'10 9.8
2015-Feb-27 08:34N 44°37' E 035°12'10 9.5
2015-Feb-27 07:34N 44°41' E 035°24'9 9.2
2015-Feb-27 06:34N 44°45' E 035°36'9 8.8
2015-Feb-27 05:34N 44°48' E 035°48'9 8.7
2015-Feb-27 04:32N 44°52' E 035°59'9 8.7
2015-Feb-27 03:33N 44°55' E 036°10'  
Track history (hours):
 
Tides and Currents Weather Stations Pressure Air Temp Water Temp Dewpoint Dewpoint Depression Visibility Wind Speed Wind Dir Waves Ship Positions

Omskiy-107

Last reported at 2015-Mar-05 01:33 UTC. Time now 2015-Mar-05 18:49 UTC.
Position N 34°24' E 033°13'.

Length 108 m; draft 3.4 m.

Type: Cargo ship. MMSI: 273343220.

Date/timePositionNaut miles runAvg speedWind from/ knotsBaromVisibWave heightAir tempDewpointWater temp
2015-Mar-05 01:33N 34°24' E 033°13'6 6.2
2015-Mar-05 00:34N 34°27' E 033°07'8 7.7
2015-Mar-04 23:34N 34°30' E 032°58'8 7.9
2015-Mar-04 22:33N 34°32' E 032°48'382 7.6
2015-Mar-02 20:04N 37°32' E 025°53'  
2015-Feb-27 14:04N 44°16' E 034°03'510.1
2015-Feb-27 13:34N 44°18' E 034°09'10 9.9
2015-Feb-27 12:33N 44°21' E 034°22'10 9.7
2015-Feb-27 11:33N 44°25' E 034°35'10 9.8
2015-Feb-27 10:34N 44°29' E 034°47'10 9.7
2015-Feb-27 09:33N 44°33' E 034°59'10 9.8
2015-Feb-27 08:34N 44°37' E 035°12'10 9.5
2015-Feb-27 07:34N 44°41' E 035°24'9 9.2
2015-Feb-27 06:34N 44°45' E 035°36'9 8.8
2015-Feb-27 05:34N 44°48' E 035°48'9 8.7
2015-Feb-27 04:32N 44°52' E 035°59'9 8.7
2015-Feb-27 03:33N 44°55' E 036°10'  

Dump ship's entire track history